Time;durP1;ratioP1;P1;durP2;ratioP2;P2;SDS_P1;SDS_P2;PMS_P1;PMS_P2;Temp;Humidity;BMP_temperature;BMP_pressure;BME280_temperature;BME280_humidity;BME280_pressure;Samples;Min_cycle;Max_cycle;Signal;HPM_P1;HPM_P2
2023/07/22 00:01:07;;;;;;;2.57;2.17;;;;;;;14.86;71.53;101315.94;5083551;28;20044;-92
2023/07/22 00:03:33;;;;;;;2.20;2.00;;;;;;;14.85;71.45;101306.41;5094162;28;20027;-93
2023/07/22 00:06:08;;;;;;;4.43;2.70;;;;;;;14.94;72.27;101320.97;5094599;28;20024;-92
2023/07/22 00:08:46;;;;;;;5.40;2.92;;;;;;;14.82;72.30;101312.53;5093707;28;20115;-91
2023/07/22 00:11:14;;;;;;;3.30;2.50;;;;;;;14.78;71.07;101307.44;5093753;28;20048;-92
2023/07/22 00:13:52;;;;;;;8.00;3.55;;;;;;;14.80;72.25;101309.13;5093971;28;20020;-91
2023/07/22 00:16:17;;;;;;;5.78;3.25;;;;;;;14.81;72.23;101316.03;5093987;28;20095;-91
2023/07/22 00:18:43;;;;;;;5.83;3.37;;;;;;;14.76;72.21;101309.22;5093992;28;20047;-92
2023/07/22 00:21:22;;;;;;;5.77;3.70;;;;;;;14.69;72.52;101298.09;5094077;28;20023;-92
2023/07/22 00:23:47;;;;;;;5.50;3.30;;;;;;;14.79;72.06;101314.38;5094552;28;20107;-92
2023/07/22 00:26:21;;;;;;;4.50;3.03;;;;;;;14.69;72.90;101289.38;5094104;28;20097;-92
2023/07/22 00:28:59;;;;;;;5.85;2.97;;;;;;;14.76;72.21;101302.25;5093854;28;20577;-92
2023/07/22 00:31:24;;;;;;;4.47;2.85;;;;;;;14.75;71.99;101300.53;5098212;28;20376;-93
2023/07/22 00:33:49;;;;;;;3.07;2.50;;;;;;;14.84;71.77;101317.75;5098796;28;20030;-92
2023/07/22 00:36:28;;;;;;;2.40;2.20;;;;;;;14.78;71.89;101310.91;5098271;28;20038;-91
2023/07/22 00:38:54;;;;;;;4.72;3.00;;;;;;;14.74;73.35;101309.28;5099134;28;20047;-91
2023/07/22 00:41:20;;;;;;;4.70;3.10;;;;;;;14.71;72.86;101305.88;5098218;28;20476;-92
2023/07/22 00:43:57;;;;;;;5.57;3.37;;;;;;;14.76;72.58;101311.84;5098659;28;20062;-93
2023/07/22 00:46:22;;;;;;;3.63;2.67;;;;;;;14.73;73.22;101302.31;5097895;28;20031;-92
2023/07/22 00:48:49;;;;;;;3.70;2.60;;;;;;;14.78;72.76;101307.44;5098681;28;20032;-92
2023/07/22 00:51:15;;;;;;;;;;;;;;;14.81;72.71;101320.44;5098376;28;20472;-93
2023/07/22 00:53:40;;;;;;;3.17;2.50;;;;;;;14.79;71.98;101312.63;5098137;28;19969;-92
2023/07/22 00:56:19;;;;;;;3.37;2.37;;;;;;;14.76;71.83;101296.16;5097824;28;20043;-92
2023/07/22 00:58:45;;;;;;;2.97;2.47;;;;;;;14.76;72.19;101289.19;5097828;28;20043;-92
2023/07/22 01:01:10;;;;;;;3.80;2.33;;;;;;;14.84;71.95;101304.69;5097279;28;20044;-91
2023/07/22 01:03:36;;;;;;;3.17;2.37;;;;;;;14.81;73.57;101300.38;5097735;28;20525;-90
2023/07/22 01:06:08;;;;;;;3.13;2.53;;;;;;;14.75;71.96;101300.53;5097783;28;20099;-92
2023/07/22 01:08:33;;;;;;;3.38;2.40;;;;;;;14.70;72.31;101294.56;5097703;28;20024;-93
2023/07/22 01:11:07;;;;;;;2.93;2.43;;;;;;;14.74;72.04;101295.38;5098342;28;20035;-92
2023/07/22 01:13:32;;;;;;;3.40;2.40;;;;;;;14.72;72.28;101287.53;5097620;28;20032;-93
2023/07/22 01:15:58;;;;;;;3.03;2.30;;;;;;;14.70;72.32;101285.88;5097992;28;20107;-93
2023/07/22 01:18:34;;;;;;;2.65;2.40;;;;;;;14.74;72.12;101292.75;5097000;28;20430;-93
2023/07/22 01:20:59;;;;;;;4.00;2.60;;;;;;;14.72;72.42;101289.31;5097533;28;20027;-92
2023/07/22 01:23:25;;;;;;;3.00;2.20;;;;;;;14.78;73.82;101299.59;5097702;28;20024;-92
2023/07/22 01:25:51;;;;;;;3.23;2.47;;;;;;;14.70;72.29;101288.50;5097292;28;20023;-91
2023/07/22 01:28:21;;;;;;;3.42;2.33;;;;;;;14.59;72.93;101273.91;5097524;28;20028;-92
2023/07/22 01:30:48;;;;;;;4.65;2.88;;;;;;;14.58;74.59;101266.97;5098068;28;20368;-93
2023/07/22 01:33:14;;;;;;;;;;;;;;;14.66;73.32;101293.75;5096885;28;20020;-92
2023/07/22 01:35:42;;;;;;;4.53;2.90;;;;;;;14.55;73.27;101280.09;5097201;28;19923;-92
2023/07/22 01:38:08;;;;;;;4.32;2.78;;;;;;;14.64;73.05;101294.69;5096979;28;20032;-92
2023/07/22 01:40:33;;;;;;;4.85;2.83;;;;;;;14.61;75.65;101287.81;5096502;28;20020;-92
2023/07/22 01:42:59;;;;;;;3.37;2.57;;;;;;;14.61;73.49;101293.03;5096652;28;20081;-92
2023/07/22 01:45:25;;;;;;;3.73;2.57;;;;;;;14.61;75.00;101281.69;5096733;28;20077;-92
2023/07/22 01:48:06;;;;;;;4.18;2.78;;;;;;;14.56;74.54;101279.22;5096836;28;20035;-92
2023/07/22 01:50:32;;;;;;;3.83;2.65;;;;;;;14.48;75.34;101260.28;5096560;28;20043;-92
2023/07/22 01:52:57;;;;;;;4.10;2.70;;;;;;;14.55;74.20;101274.03;5096903;28;20016;-92
2023/07/22 01:55:23;;;;;;;6.57;3.50;;;;;;;14.51;75.15;101276.72;5096780;28;20024;-92
2023/07/22 01:58:02;;;;;;;5.30;3.13;;;;;;;14.45;75.68;101262.94;5095864;28;20039;-92
2023/07/22 02:00:29;;;;;;;3.85;2.75;;;;;;;14.51;76.35;101276.72;5096639;28;20040;-91
2023/07/22 02:02:55;;;;;;;3.95;2.70;;;;;;;14.44;75.23;101269.06;5096899;28;20028;-91
2023/07/22 02:05:20;;;;;;;4.00;2.60;;;;;;;14.40;75.46;101265.69;5097074;28;20016;-90
2023/07/22 02:08:01;;;;;;;3.20;2.37;;;;;;;14.37;75.17;101260.53;5095579;28;20122;-91
2023/07/22 02:10:26;;;;;;;4.80;2.90;;;;;;;14.35;75.96;101255.34;5096865;28;20103;-91
2023/07/22 02:12:52;;;;;;;4.53;2.90;;;;;;;14.43;76.59;101270.84;5097007;28;20441;-91
2023/07/22 02:15:18;;;;;;;6.53;3.70;;;;;;;14.41;77.51;101270.00;5096944;28;20028;-92
2023/07/22 02:18:02;;;;;;;6.93;3.50;;;;;;;14.42;74.97;101266.50;5096203;28;20024;-92
2023/07/22 02:20:28;;;;;;;4.95;3.10;;;;;;;14.39;74.99;101265.72;5096303;28;20026;-92
2023/07/22 02:23:06;;;;;;;4.25;2.90;;;;;;;14.43;74.84;101269.97;5095729;28;20031;-92
2023/07/22 02:25:34;;;;;;;4.25;2.70;;;;;;;14.36;75.07;101259.69;5104719;22;20032;-90
2023/07/22 02:28:01;;;;;;;5.25;3.05;;;;;;;14.43;75.88;101265.59;5115306;28;20046;-92
2023/07/22 02:30:26;;;;;;;4.40;2.90;;;;;;;14.33;75.04;101243.22;5116899;28;20028;-93
2023/07/22 02:32:52;;;;;;;3.57;2.50;;;;;;;14.27;76.83;101244.25;5116929;28;20023;-92
2023/07/22 02:35:17;;;;;;;4.23;2.80;;;;;;;14.20;75.00;101233.09;5115977;28;20020;-92
2023/07/22 02:37:58;;;;;;;6.63;3.80;;;;;;;14.29;76.09;101252.91;5116650;28;20066;-92
2023/07/22 02:40:23;;;;;;;4.95;3.00;;;;;;;14.27;75.68;101252.06;5115794;28;20379;-91
2023/07/22 02:42:49;;;;;;;4.23;2.90;;;;;;;14.32;75.99;101267.63;5116868;28;20543;-92
2023/07/22 02:45:14;;;;;;;4.60;2.87;;;;;;;14.27;75.42;101256.41;5115974;28;20490;-93
2023/07/22 02:47:54;;;;;;;3.67;2.50;;;;;;;14.10;75.16;101231.59;5116217;28;20122;-92
2023/07/22 02:50:20;;;;;;;4.07;2.58;;;;;;;14.23;75.38;101247.81;5116184;28;20031;-92
2023/07/22 02:52:45;;;;;;;3.60;2.47;;;;;;;14.10;75.61;101235.94;5115566;28;20020;-93
2023/07/22 02:55:18;;;;;;;3.47;2.37;;;;;;;14.16;75.27;101261.91;5115768;28;20134;-92
2023/07/22 02:57:56;;;;;;;3.65;2.47;;;;;;;14.12;76.13;101263.75;5116118;28;20028;-91
2023/07/22 03:00:24;;;;;;;3.60;2.47;;;;;;;14.03;75.10;101249.16;5116436;28;20027;-92
2023/07/22 03:02:52;;;;;;;4.82;2.95;;;;;;;14.03;76.21;101262.19;5116216;28;20065;-92
2023/07/22 03:05:33;;;;;;;4.30;2.80;;;;;;;13.89;75.57;101248.59;5115900;28;20105;-92
2023/07/22 03:08:05;;;;;;;3.50;2.60;;;;;;;13.77;75.85;101230.59;5115924;28;20101;-92
2023/07/22 03:10:30;;;;;;;6.55;3.50;;;;;;;13.82;76.83;101255.69;5115595;28;20035;-92
2023/07/22 03:12:56;;;;;;;7.33;3.50;;;;;;;13.74;79.84;101252.41;5115617;28;20028;-92
2023/07/22 03:15:23;;;;;;;6.33;3.70;;;;;;;13.69;76.10;101254.25;5115394;28;20034;-92
2023/07/22 03:17:49;;;;;;;7.32;3.55;;;;;;;13.66;75.81;101254.34;5116157;28;20416;-92
2023/07/22 03:20:19;;;;;;;6.07;3.50;;;;;;;13.64;77.99;101259.56;5114969;28;20105;-91
2023/07/22 03:22:45;;;;;;;8.05;4.20;;;;;;;13.65;76.61;101269.13;5115238;28;20456;-92
2023/07/22 03:25:11;;;;;;;6.57;3.50;;;;;;;13.56;76.90;101269.31;5115195;28;20031;-92
2023/07/22 03:27:37;;;;;;;6.55;3.70;;;;;;;13.59;78.17;101274.47;5115258;28;20505;-92
2023/07/22 03:30:04;;;;;;;4.95;3.20;;;;;;;13.49;76.94;101270.34;5115701;28;20028;-92
2023/07/22 03:32:29;;;;;;;4.78;3.00;;;;;;;13.42;76.92;101265.22;5114872;28;20019;-91
2023/07/22 03:35:01;;;;;;;4.90;3.00;;;;;;;13.51;76.80;101281.59;5116101;28;20452;-92
2023/07/22 03:37:27;;;;;;;5.20;3.05;;;;;;;13.47;76.54;101277.34;5114934;28;20062;-92
2023/07/22 03:40:14;;;;;;;4.50;2.83;;;;;;;13.30;76.49;101257.63;5115212;28;20099;-92
2023/07/22 03:42:39;;;;;;;4.60;2.80;;;;;;;13.43;77.19;101277.38;5115496;28;20432;-91
2023/07/22 03:45:07;;;;;;;5.30;3.20;;;;;;;13.24;78.15;101253.41;5115743;28;20051;-91
2023/07/22 03:47:32;;;;;;;4.57;2.80;;;;;;;13.34;77.20;101277.53;5114943;28;20408;-92
2023/07/22 03:49:58;;;;;;;4.40;3.00;;;;;;;13.31;77.46;101269.78;5115536;28;20043;-92
2023/07/22 03:52:29;;;;;;;4.90;3.00;;;;;;;13.34;80.55;101277.53;5114955;28;20354;-91
2023/07/22 03:54:57;;;;;;;6.13;3.45;;;;;;;13.13;78.73;101257.97;5114972;28;20047;-90
2023/07/22 03:57:35;;;;;;;5.50;3.30;;;;;;;13.14;78.64;101262.28;5114954;28;20029;-91
2023/07/22 04:00:00;;;;;;;4.65;2.80;;;;;;;13.12;78.08;101267.53;5114828;28;20027;-91
2023/07/22 04:02:26;;;;;;;3.60;2.80;;;;;;;13.09;79.23;101262.38;5114342;28;20468;-92
2023/07/22 04:04:54;;;;;;;5.50;2.97;;;;;;;13.19;78.03;101280.44;5113509;28;20031;-91
2023/07/22 04:07:21;;;;;;;4.78;2.90;;;;;;;13.06;79.58;101254.59;5113668;28;20020;-91
2023/07/22 04:09:47;;;;;;;4.22;2.67;;;;;;;13.17;80.93;101271.81;5114426;28;20051;-91
2023/07/22 04:12:13;;;;;;;4.80;2.78;;;;;;;13.15;79.01;101271.81;5113845;28;20020;-91
2023/07/22 04:14:50;;;;;;;3.97;2.73;;;;;;;13.02;80.02;101250.38;5114334;28;20034;-92
2023/07/22 04:17:15;;;;;;;;;;;;;;;13.16;78.92;101270.94;5114425;28;20502;-92
2023/07/22 04:19:42;;;;;;;4.67;2.67;;;;;;;13.15;79.22;101277.03;5114609;28;19916;-92
2023/07/22 04:22:07;;;;;;;;;;;;;;;13.18;78.23;101279.59;5114495;28;20023;-91
2023/07/22 04:24:45;;;;;;;6.00;2.90;;;;;;;13.18;78.75;101283.94;5114175;28;19918;-91
2023/07/22 04:27:19;;;;;;;5.03;2.90;;;;;;;13.17;79.84;101282.25;5112400;28;20047;-92
2023/07/22 04:29:45;;;;;;;5.53;2.85;;;;;;;13.12;78.43;101271.88;5113958;28;20061;-91
2023/07/22 04:32:11;;;;;;;4.07;2.60;;;;;;;13.14;78.92;101275.31;5113817;28;20077;-92
2023/07/22 04:34:36;;;;;;;5.07;3.07;;;;;;;13.12;79.02;101270.16;5114085;28;20054;-91
2023/07/22 04:37:01;;;;;;;3.93;2.80;;;;;;;13.06;78.96;101266.78;5114016;28;20023;-91
2023/07/22 04:39:42;;;;;;;5.13;3.10;;;;;;;13.10;79.00;101274.53;5113971;28;20026;-92
2023/07/22 04:42:08;;;;;;;3.58;2.60;;;;;;;13.20;79.37;101285.63;5113792;28;20353;-91
2023/07/22 04:44:33;;;;;;;5.53;3.33;;;;;;;13.20;81.43;101284.75;5114194;28;20018;-91
2023/07/22 04:47:01;;;;;;;4.97;3.03;;;;;;;13.25;80.43;101290.75;5113571;28;20020;-91
2023/07/22 04:49:27;;;;;;;4.13;2.70;;;;;;;13.21;79.41;101276.06;5113700;28;20106;-92
2023/07/22 04:51:52;;;;;;;4.03;2.87;;;;;;;13.32;80.43;101288.91;5114031;28;20610;-91
2023/07/22 04:54:30;;;;;;;4.57;2.83;;;;;;;13.31;80.37;101281.97;5113638;28;20012;-93
2023/07/22 04:56:55;;;;;;;4.57;2.70;;;;;;;13.28;78.88;101264.66;5114454;28;20051;-91
2023/07/22 04:59:20;;;;;;;4.80;2.73;;;;;;;13.39;79.56;101273.13;5113616;28;20036;-92
2023/07/22 05:02:01;;;;;;;3.63;2.50;;;;;;;13.58;79.89;101291.00;5114119;28;20106;-91
2023/07/22 05:04:26;;;;;;;3.78;2.55;;;;;;;13.65;79.34;101282.16;5112856;28;20019;-91
2023/07/22 05:06:51;;;;;;;4.33;2.63;;;;;;;13.65;80.40;101271.72;5113317;28;20031;-93
2023/07/22 05:09:26;;;;;;;5.03;2.80;;;;;;;13.74;80.56;101283.72;5112683;28;20023;-89
2023/07/22 05:12:03;;;;;;;5.03;2.90;;;;;;;13.83;80.06;101285.28;5112333;28;20030;-88
2023/07/22 05:14:48;;;;;;;4.47;2.92;;;;;;;13.92;80.83;101298.13;5112431;28;20497;-86
2023/07/22 05:17:13;;;;;;;5.30;2.95;;;;;;;13.90;79.72;101286.84;5114771;28;20467;-88
2023/07/22 05:19:39;;;;;;;4.70;3.30;;;;;;;13.87;81.01;101279.06;5116243;28;20023;-85
2023/07/22 05:22:07;;;;;;;9.20;4.60;;;;;;;13.93;81.72;101278.09;5115376;28;20468;-85
2023/07/22 05:24:33;;;;;;;9.85;4.80;;;;;;;14.04;82.62;101290.00;5115289;28;20032;-89
2023/07/22 05:26:58;;;;;;;9.33;4.60;;;;;;;14.05;81.54;101285.63;5104072;28;20044;-88
2023/07/22 05:29:24;;;;;;;9.20;4.80;;;;;;;14.04;82.65;101273.47;5095559;28;20024;-89
2023/07/22 05:31:55;;;;;;;9.50;4.50;;;;;;;14.18;81.48;101288.84;5095211;28;20042;-89
2023/07/22 05:34:20;;;;;;;9.73;5.00;;;;;;;14.13;82.14;101272.41;5095860;28;20088;-88
2023/07/22 05:36:45;;;;;;;10.57;5.17;;;;;;;14.19;81.70;101273.13;5095864;28;20107;-89
2023/07/22 05:39:11;;;;;;;7.77;4.00;;;;;;;14.36;81.58;101300.56;5095246;28;20036;-89
2023/07/22 05:41:36;;;;;;;6.63;3.80;;;;;;;14.29;80.56;101276.41;5095965;28;20484;-91
2023/07/22 05:44:01;;;;;;;12.37;5.47;;;;;;;14.42;81.50;101279.56;5095347;28;20097;-86
2023/07/22 05:46:27;;;;;;;8.13;4.67;;;;;;;14.63;80.66;101290.38;5094327;28;20020;-86
2023/07/22 05:48:52;;;;;;;6.73;4.07;;;;;;;14.79;80.91;101285.63;5094775;28;20046;-85
2023/07/22 05:51:18;;;;;;;8.43;4.53;;;;;;;14.88;81.20;101295.84;5094789;28;20387;-85
2023/07/22 05:53:44;;;;;;;7.60;4.33;;;;;;;14.97;80.41;101292.13;5094465;28;20483;-83
2023/07/22 05:56:09;;;;;;;6.83;4.10;;;;;;;15.00;79.92;101279.00;5094554;28;20036;-83
2023/07/22 05:58:35;;;;;;;10.50;4.80;;;;;;;15.08;80.58;101291.88;5094987;28;20035;-85
2023/07/22 06:01:00;;;;;;;9.43;4.30;;;;;;;15.08;80.74;101277.03;5094145;28;20036;-87
2023/07/22 06:03:29;;;;;;;10.93;5.37;;;;;;;15.15;79.86;101282.94;5094411;28;20111;-86
2023/07/22 06:06:45;;;;;;;11.82;5.53;;;;;;;15.27;79.79;101295.69;5094756;28;20024;-87
2023/07/22 06:09:26;;;;;;;11.32;5.47;;;;;;;15.29;80.89;101266.88;5052167;28;20539;-87
2023/07/22 06:12:01;;;;;;;11.05;5.47;;;;;;;15.47;80.24;101278.56;5052445;28;20040;-82
2023/07/22 06:14:27;;;;;;;9.88;5.20;;;;;;;15.59;79.60;101283.44;5051171;28;20439;-82
2023/07/22 06:16:52;;;;;;;9.77;5.13;;;;;;;15.79;79.65;101286.38;5052377;28;20071;-82
2023/07/22 06:19:18;;;;;;;11.03;5.47;;;;;;;15.82;79.60;101279.28;5058657;28;20090;-82
2023/07/22 06:21:46;;;;;;;10.43;5.03;;;;;;;15.95;78.97;101278.94;5095823;28;20116;-89
2023/07/22 06:24:11;;;;;;;9.27;4.72;;;;;;;16.09;79.16;101289.84;5104798;28;20430;-86
2023/07/22 06:26:42;;;;;;;8.73;4.70;;;;;;;16.18;78.68;101278.22;5103489;28;20048;-87
2023/07/22 06:29:10;;;;;;;8.88;4.40;;;;;;;16.38;77.65;101281.97;5113016;28;20032;-94
2023/07/22 06:31:36;;;;;;;12.27;6.05;;;;;;;16.34;77.55;101263.72;5115124;28;20450;-88
2023/07/22 06:34:01;;;;;;;9.87;5.10;;;;;;;16.67;77.11;101284.47;5114437;28;20115;-85
2023/07/22 06:36:42;;;;;;;9.30;4.60;;;;;;;16.97;77.08;101275.63;5113911;28;20384;-92
2023/07/22 06:40:01;;;;;;;9.90;4.80;;;;;;;17.38;76.15;101259.31;5115355;28;20023;-93
2023/07/22 06:42:36;;;;;;;7.32;4.25;;;;;;;17.77;73.04;101255.22;5032892;28;20129;-93
2023/07/22 06:45:02;;;;;;;13.45;6.00;;;;;;;18.02;72.82;101255.97;5033080;28;20038;-92
2023/07/22 06:48:08;;;;;;;9.50;4.97;;;;;;;18.23;73.95;101271.81;5085855;28;20379;-92
2023/07/22 06:50:48;;;;;;;6.55;3.97;;;;;;;18.66;72.97;101258.63;5115555;28;20027;-92
2023/07/22 06:53:24;;;;;;;8.77;4.43;;;;;;;19.19;71.65;101262.50;5116043;28;20069;-91
2023/07/22 06:56:04;;;;;;;9.95;4.85;;;;;;;19.40;70.65;101254.53;5104797;28;20043;-91
2023/07/22 06:58:32;;;;;;;8.88;4.70;;;;;;;19.73;70.31;101248.63;5116271;28;20027;-91
2023/07/22 07:00:59;;;;;;;7.25;4.10;;;;;;;19.96;69.73;101255.47;5116003;28;20015;-90
2023/07/22 07:03:30;;;;;;;;;;;;;;;20.30;66.82;101274.03;5115953;28;20528;-89
2023/07/22 07:05:57;;;;;;;8.85;4.90;;;;;;;20.40;65.73;101264.75;5115441;28;19911;-88
2023/07/22 07:08:31;;;;;;;13.23;6.10;;;;;;;20.35;65.24;101262.34;5112740;28;20035;-86
2023/07/22 07:11:17;;;;;;;13.70;6.32;;;;;;;20.32;65.99;101267.75;5113522;28;20035;-93
2023/07/22 07:13:47;;;;;;;10.30;5.20;;;;;;;20.16;67.02;101269.44;5114302;28;20062;-88
2023/07/22 07:16:26;;;;;;;9.68;4.88;;;;;;;19.93;66.81;101262.69;5107660;28;20097;-88
2023/07/22 07:18:52;;;;;;;9.60;4.70;;;;;;;19.62;68.27;101254.41;5113600;28;20016;-89
2023/07/22 07:21:18;;;;;;;8.20;4.57;;;;;;;19.45;68.62;101258.69;5113521;28;20050;-88
2023/07/22 07:23:48;;;;;;;8.77;4.47;;;;;;;19.27;68.52;101264.78;5113061;28;20066;-89
2023/07/22 07:26:13;;;;;;;7.75;4.05;;;;;;;19.08;69.88;101259.50;5113118;28;20039;-88
2023/07/22 07:28:39;;;;;;;10.37;5.00;;;;;;;18.99;69.38;101263.38;5113711;28;20035;-89
2023/07/22 07:31:17;;;;;;;9.10;4.60;;;;;;;18.83;70.00;101257.91;5112494;28;20555;-88
2023/07/22 07:33:42;;;;;;;9.98;5.10;;;;;;;18.73;69.70;101262.72;5113660;28;20027;-88
2023/07/22 07:36:17;;;;;;;13.57;6.53;;;;;;;18.36;70.92;101238.00;5113452;28;20023;-88
2023/07/22 07:38:43;;;;;;;9.82;5.25;;;;;;;18.36;71.12;101253.75;5112773;28;20110;-88
2023/07/22 07:41:11;;;;;;;10.40;5.47;;;;;;;18.28;70.96;101261.13;5113221;28;20058;-88
2023/07/22 07:43:48;;;;;;;8.60;4.68;;;;;;;18.17;71.38;101257.16;5113420;28;20084;-89
2023/07/22 07:46:25;;;;;;;7.75;4.45;;;;;;;18.21;72.59;101256.09;5112321;28;20035;-87
2023/07/22 07:49:22;;;;;;;9.30;4.68;;;;;;;18.32;71.59;101262.69;5113332;28;20473;-88
2023/07/22 07:51:47;;;;;;;8.82;4.60;;;;;;;18.27;72.04;101241.84;5112483;28;20038;-88
2023/07/22 07:54:12;;;;;;;8.03;4.40;;;;;;;18.33;72.33;101251.25;5113067;28;20012;-88
2023/07/22 07:56:38;;;;;;;7.43;4.07;;;;;;;18.49;72.12;101261.97;5113702;28;20016;-88
2023/07/22 07:59:12;;;;;;;6.90;4.00;;;;;;;18.75;73.22;101263.50;5112077;28;20104;-87
2023/07/22 08:01:41;;;;;;;8.95;4.72;;;;;;;18.87;71.78;101242.84;5113639;28;20072;-89
2023/07/22 08:04:09;;;;;;;9.50;4.53;;;;;;;19.09;71.45;101245.41;5112571;28;20027;-88
2023/07/22 08:06:38;;;;;;;9.05;4.30;;;;;;;19.25;70.96;101245.59;5112735;28;20364;-88
2023/07/22 08:09:05;;;;;;;7.13;4.22;;;;;;;19.47;71.15;101263.88;5112683;28;20111;-87
2023/07/22 08:11:30;;;;;;;9.95;4.88;;;;;;;19.45;68.00;101250.78;5112926;28;20042;-89
2023/07/22 08:13:56;;;;;;;10.30;5.10;;;;;;;19.41;69.83;101246.59;5112222;28;20364;-87
2023/07/22 08:16:33;;;;;;;9.00;4.53;;;;;;;19.45;69.43;101248.16;5112865;28;20409;-85
2023/07/22 08:18:58;;;;;;;6.53;3.70;;;;;;;19.56;69.54;101252.06;5113096;28;20080;-86
2023/07/22 08:21:24;;;;;;;6.23;3.90;;;;;;;19.57;69.95;101245.88;5111853;28;20438;-86
2023/07/22 08:23:49;;;;;;;4.70;3.40;;;;;;;19.69;69.38;101255.00;5113025;28;20026;-86
2023/07/22 08:26:23;;;;;;;6.53;3.50;;;;;;;19.80;68.83;101268.50;5112914;28;20122;-89
2023/07/22 08:28:49;;;;;;;6.05;3.33;;;;;;;19.71;68.66;101259.25;5111889;28;20032;-85
2023/07/22 08:31:14;;;;;;;7.73;3.97;;;;;;;19.74;68.42;101274.91;5114523;28;20020;-89
2023/07/22 08:33:39;;;;;;;7.07;3.90;;;;;;;19.79;67.24;101279.97;5115448;28;20061;-91
2023/07/22 08:36:17;;;;;;;6.83;4.17;;;;;;;19.68;68.21;101261.19;5112274;28;20020;-87
2023/07/22 08:38:42;;;;;;;6.13;3.50;;;;;;;19.93;68.63;101274.06;5112508;28;20020;-86
2023/07/22 08:41:08;;;;;;;7.60;4.03;;;;;;;20.15;67.05;101259.84;5113088;28;20023;-91
2023/07/22 08:43:46;;;;;;;7.47;4.25;;;;;;;20.35;66.30;101256.22;5113682;28;20073;-89
2023/07/22 08:46:12;;;;;;;9.90;4.32;;;;;;;20.59;65.77;101275.22;5112907;28;20028;-85
2023/07/22 08:48:42;;;;;;;9.82;4.85;;;;;;;20.73;64.65;101252.56;5112073;28;20041;-89
2023/07/22 08:51:16;;;;;;;7.85;4.22;;;;;;;21.09;60.57;101275.34;5114338;28;20110;-90
2023/07/22 08:53:43;;;;;;;10.05;4.93;;;;;;;21.15;61.05;101259.19;5119237;27;20053;-87
2023/07/22 08:56:24;;;;;;;7.95;4.40;;;;;;;21.24;62.75;101250.75;5115707;28;20470;-87
2023/07/22 08:58:51;;;;;;;8.25;4.60;;;;;;;21.47;61.56;101255.75;5116313;28;20075;-87
2023/07/22 09:01:26;;;;;;;5.28;3.60;;;;;;;21.66;59.48;101263.53;5116286;28;20099;-87
2023/07/22 09:03:52;;;;;;;8.95;4.30;;;;;;;21.79;60.92;101274.25;5116598;28;20024;-87
2023/07/22 09:06:20;;;;;;;;;;;;;;;21.75;59.70;101285.00;5116840;28;20080;-87
2023/07/22 09:08:46;;;;;;;9.60;4.75;;;;;;;21.62;57.00;101265.47;5116156;28;19916;-88
2023/07/22 09:11:25;;;;;;;6.00;3.70;;;;;;;21.52;60.23;101267.75;5115968;28;20103;-88
2023/07/22 09:13:53;;;;;;;4.13;3.00;;;;;;;21.54;60.43;101257.09;5116144;28;20028;-87
2023/07/22 09:16:19;;;;;;;4.72;3.10;;;;;;;21.67;60.19;101271.38;5115572;28;20490;-89
2023/07/22 09:19:00;;;;;;;3.80;2.80;;;;;;;21.71;60.44;101274.69;5116137;28;20030;-88
2023/07/22 09:21:25;;;;;;;3.60;2.53;;;;;;;21.76;60.13;101272.66;5116033;28;20107;-88
2023/07/22 09:23:50;;;;;;;5.93;3.40;;;;;;;21.77;59.63;101261.16;5115224;28;20111;-88
2023/07/22 09:26:32;;;;;;;6.07;3.40;;;;;;;21.82;59.88;101268.81;5115056;28;20031;-89
2023/07/22 09:28:58;;;;;;;3.97;2.85;;;;;;;21.90;60.61;101259.50;5116002;28;20031;-88
2023/07/22 09:31:25;;;;;;;4.10;2.50;;;;;;;22.08;58.83;101271.75;5115321;28;20032;-88
2023/07/22 09:33:53;;;;;;;6.05;3.22;;;;;;;21.98;57.94;101256.44;5115903;28;20502;-88
2023/07/22 09:36:49;;;;;;;5.85;3.30;;;;;;;21.97;55.98;101260.00;5115870;28;20031;-89
2023/07/22 09:39:26;;;;;;;4.20;2.88;;;;;;;21.77;56.63;101240.03;5106597;28;20062;-88
2023/07/22 09:41:55;;;;;;;4.32;2.80;;;;;;;21.74;58.60;101242.81;5114860;28;20160;-90
2023/07/22 09:44:28;;;;;;;2.80;2.30;;;;;;;21.74;59.06;101238.38;5114692;28;20027;-91
2023/07/22 09:46:54;;;;;;;3.50;2.60;;;;;;;21.85;57.72;101252.78;5116349;28;20031;-89
2023/07/22 09:49:30;;;;;;;;;;;;;;;;;;;;;
2023/07/22 09:52:12;;;;;;;2.25;2.05;;;;;;;21.97;59.48;101244.16;5113694;28;20048;-90
2023/07/22 09:54:48;;;;;;;2.58;2.17;;;;;;;22.09;57.72;101245.25;5116568;28;20098;-89
2023/07/22 09:57:13;;;;;;;;;;;;;;;22.18;55.92;101252.66;5116830;28;20038;-89
2023/07/22 09:59:39;;;;;;;3.53;2.60;;;;;;;22.02;58.56;101228.91;5115757;28;19915;-91
2023/07/22 10:02:23;;;;;;;4.57;3.00;;;;;;;22.07;57.71;101239.19;5115470;28;20023;-90
2023/07/22 10:04:54;;;;;;;4.20;2.80;;;;;;;21.94;56.90;101233.78;5117053;28;20031;-87
2023/07/22 10:07:26;;;;;;;5.10;2.97;;;;;;;21.82;57.55;101248.53;5115239;28;20035;-89
2023/07/22 10:09:58;;;;;;;5.90;3.10;;;;;;;21.62;57.60;101247.00;5115903;28;20050;-88
2023/07/22 10:12:24;;;;;;;5.80;3.00;;;;;;;21.59;58.27;101240.09;5115308;28;20514;-89
2023/07/22 10:14:57;;;;;;;3.53;2.60;;;;;;;21.67;58.44;101241.47;5116509;28;20024;-90
2023/07/22 10:17:38;;;;;;;4.18;2.65;;;;;;;21.81;57.59;101256.53;5116411;28;20114;-91
2023/07/22 10:20:07;;;;;;;3.83;2.83;;;;;;;21.75;58.64;101247.19;5118072;28;20030;-88
2023/07/22 10:22:38;;;;;;;4.15;2.78;;;;;;;21.70;56.76;101242.16;5118165;28;20063;-89
2023/07/22 10:25:24;;;;;;;5.05;2.85;;;;;;;21.80;58.40;101242.47;5116487;28;20414;-88
2023/07/22 10:27:51;;;;;;;3.92;2.80;;;;;;;22.08;55.86;101253.25;5115002;28;20051;-89
2023/07/22 10:30:18;;;;;;;4.93;2.92;;;;;;;22.19;57.06;101248.19;5117102;28;20025;-91
2023/07/22 10:33:08;;;;;;;4.85;2.80;;;;;;;22.36;56.92;101252.50;5117347;28;20026;-89
2023/07/22 10:38:55;;;;;;;3.53;2.40;;;;;;;22.42;55.15;101243.38;5117261;28;20444;-90
2023/07/22 10:41:38;;;;;;;2.30;2.05;;;;;;;22.54;56.13;101239.19;5116890;28;20383;-90
2023/07/22 10:44:06;;;;;;;4.75;2.45;;;;;;;22.60;55.84;101239.66;5116786;28;20027;-92
2023/07/22 10:46:34;;;;;;;3.17;2.35;;;;;;;22.63;52.46;101238.63;5116677;28;20023;-91
2023/07/22 10:49:18;;;;;;;4.03;2.30;;;;;;;22.73;52.12;101244.22;5116088;28;20077;-91
2023/07/22 10:52:02;;;;;;;3.42;2.40;;;;;;;22.73;52.34;101234.47;5115669;28;20116;-90
2023/07/22 10:54:36;;;;;;;4.03;2.40;;;;;;;22.76;50.42;101223.72;5115412;28;20024;-90
2023/07/22 10:57:32;;;;;;;2.95;2.33;;;;;;;23.01;51.70;101234.56;5115793;28;20012;-90
2023/07/22 10:59:58;;;;;;;2.70;2.10;;;;;;;23.06;52.73;101236.00;5116612;28;20031;-90
2023/07/22 11:02:29;;;;;;;;;;;;;;;23.15;52.55;101250.47;5096892;28;20020;-90
2023/07/22 11:05:11;;;;;;;3.90;2.05;;;;;;;23.23;49.03;101240.28;5115633;28;19919;-91
2023/07/22 11:08:04;;;;;;;3.42;2.08;;;;;;;23.20;48.90;101227.22;5110556;28;20429;-90
2023/07/22 11:10:29;;;;;;;3.33;2.10;;;;;;;23.31;49.08;101236.28;5115045;28;20378;-91
2023/07/22 11:12:57;;;;;;;3.10;2.00;;;;;;;23.30;48.73;101227.50;5096409;28;20028;-89
2023/07/22 11:15:29;;;;;;;1.95;1.80;;;;;;;23.43;48.96;101238.16;5114033;28;20036;-93
2023/07/22 11:18:39;;;;;;;2.10;1.90;;;;;;;23.50;50.27;101234.19;5114424;28;20046;-88
2023/07/22 11:21:26;;;;;;;1.77;1.67;;;;;;;23.49;48.58;101228.97;5032627;28;20033;-89
2023/07/22 11:24:06;;;;;;;2.70;1.67;;;;;;;23.55;51.27;101216.19;5114931;28;20041;-89
2023/07/22 11:26:32;;;;;;;1.85;1.50;;;;;;;23.64;50.17;101228.00;5115108;28;20044;-89
2023/07/22 11:29:01;;;;;;;3.10;1.75;;;;;;;23.43;48.09;101214.31;5119015;28;20027;-93
2023/07/22 11:31:48;;;;;;;3.15;1.70;;;;;;;23.24;47.82;101218.16;5115632;28;20040;-89
2023/07/22 11:34:29;;;;;;;1.73;1.63;;;;;;;23.16;49.94;101211.59;5115715;28;20157;-88
2023/07/22 11:36:58;;;;;;;2.17;1.70;;;;;;;23.11;49.34;101199.50;5116028;28;20023;-92
2023/07/22 11:39:25;;;;;;;2.30;1.80;;;;;;;23.13;47.30;101208.22;5115150;28;20023;-90
2023/07/22 11:41:51;;;;;;;2.00;1.80;;;;;;;23.23;47.97;101218.25;5114315;28;20028;-90
2023/07/22 11:44:27;;;;;;;4.93;2.00;;;;;;;23.22;47.75;101208.59;5112431;28;20047;-90
2023/07/22 11:46:58;;;;;;;3.40;2.03;;;;;;;23.21;47.77;101210.38;5099821;28;20028;-92